Latest Coastal Weather Observations for Port Augusta

IDS60701

Issued at 11:11 pm CST Thursday 18 July 2024 (issued every 10 minutes, with the page automatically refreshed every 10 minutes)

About coastal observations | Map of coastal stations | Coastal observations for SA | Marine services | Other Formats
Station Details ID: 018201 Name: PORT AUGUSTA AERO Lat: -32.51 Lon: 137.72 Height: 13.97 m
Data from the previous 72 hours. | See also: Recent months at Port Augusta
Date/Time
CST
Wind Sea
Height
m
Swell Vis
km
Cloud Weather Temp
°C
Press
MSL
hPa
Rain since
9am
mm
Dir  Spd
kts
Gust
kts
Height
m
Period
s
Dir
18/11:00pm N 14 18 - - - - 10 Clear - 10.7 1017.9 0.0
18/10:30pm N 11 15 - - - - 10 - - 10.6 1018.0 0.0
18/10:00pm N 10 14 - - - - 10 - - 10.6 1018.5 0.0
18/09:30pm N 9 12 - - - - 10 - - 10.3 1018.9 0.0
18/09:00pm N 11 16 - - - - 10 Cloudy - 10.6 1019.3 0.0
18/08:30pm N 11 15 - - - - 10 - - 10.4 1019.2 0.0
18/08:00pm N 10 13 - - - - 10 - - 10.6 1019.1 0.0
18/07:30pm N 10 13 - - - - 10 - - 10.9 1019.6 0.0
18/07:00pm N 9 12 - - - - 10 - - 11.0 1019.1 0.0
18/06:30pm N 11 13 - - - - 10 - - 11.3 1019.0 0.0
18/06:00pm NNE 9 12 - - - - 10 Cloudy - 11.5 1019.5 0.0
18/05:30pm N 9 11 - - - - 10 - - 12.3 1019.4 0.0
18/05:00pm N 8 11 - - - - 10 - - 13.3 1019.7 0.0
18/04:30pm N 11 15 - - - - 10 - - 13.2 1019.7 0.0
18/04:00pm N 12 15 - - - - 10 - - 13.5 1019.2 0.0
18/03:30pm N 11 14 - - - - 10 - - 13.6 1019.3 0.0
18/03:00pm N 11 17 - - - - 10 Mostly clear - 13.6 1019.4 0.0
18/02:30pm N 10 14 - - - - 10 - - 15.3 1019.7 0.0
18/02:00pm NNW 9 13 - - - - 10 - - 15.1 1020.1 0.0
18/01:30pm NNE 9 12 - - - - 10 - - 13.7 1020.6 0.0
18/01:00pm NW 7 10 - - - - 10 - - 14.4 1021.2 0.0
18/12:30pm NW 7 9 - - - - 10 - - 14.1 1021.9 0.0
18/12:00pm NNW 4 9 - - - - 10 Partly cloudy - 13.2 1022.7 0.0
18/11:30am NNW 4 7 - - - - 10 Mostly clear - 13.1 1023.4 0.0
18/11:00am NW 5 7 - - - - 10 Mostly clear - 12.9 1023.7 0.0
18/10:30am NW 5 8 - - - - 10 - - 12.3 1024.0 0.0
18/10:00am N 6 9 - - - - 10 - - 10.8 1023.9 0.0
18/09:30am NNW 6 7 - - - - 10 Cloudy - 9.8 1023.7 0.0
18/09:00am N 6 8 - - - - 10 Mostly cloudy - 8.7 1023.7 0.2
18/08:30am NNW 6 7 - - - - 10 - - 7.3 1023.7 0.2
18/08:00am N 6 6 - - - - 10 Mostly clear - 5.8 1023.5 0.2
18/07:30am WSW 4 5 - - - - 10 - - 6.6 1023.2 0.2
18/07:00am WSW 5 6 - - - - 10 - - 6.3 1023.6 0.2
18/06:30am WSW 1 4 - - - - 10 Cloudy - 7.8 1023.4 0.2
18/06:00am WSW 4 5 - - - - 10 Cloudy - 7.5 1023.3 0.2
18/05:30am WSW 6 7 - - - - 10 Partly cloudy - 6.8 1023.0 0.2
18/05:00am SW 7 9 - - - - 10 Mostly clear - 7.1 1022.7 0.2
18/04:30am WSW 5 7 - - - - 10 Partly cloudy - 7.4 1022.7 0.2
18/04:00am SW 7 9 - - - - 10 Partly cloudy - 8.0 1022.9 0.2
18/03:30am SW 11 13 - - - - 10 Mostly clear - 8.2 1023.1 0.2
18/03:00am WSW 9 12 - - - - 10 Cloudy - 8.1 1022.9 0.2
18/02:30am WSW 7 11 - - - - 10 Partly cloudy - 8.4 1022.6 0.2
18/02:00am WSW 2 4 - - - - 10 Mostly clear - 8.3 1022.3 0.2
18/01:30am SW 6 7 - - - - 10 Partly cloudy - 8.5 1022.3 0.2
18/01:00am WSW 7 8 - - - - 10 Partly cloudy - 7.5 1022.4 0.2
18/12:30am WSW 4 5 - - - - 10 Partly cloudy - 7.8 1022.6 0.2
18/12:00am SW 9 11 - - - - 10 Mostly cloudy - 8.2 1022.6 0.2
 
Date/Time
CST
Wind Sea
Height
m
Swell Vis
km
Cloud Weather Temp
°C
Press
MSL
hPa
Rain since
9am
mm
Dir  Spd
kts
Gust
kts
Height
m
Period
s
Dir
17/11:30pm SW 3 6 - - - - 10 Mostly clear - 8.2 1022.9 0.2
17/11:00pm SW 7 9 - - - - 10 Partly cloudy - 8.4 1023.1 0.2
17/10:30pm SSW 8 10 - - - - 10 - - 8.9 1023.2 0.2
17/10:00pm SW 10 13 - - - - 10 - - 9.4 1023.1 0.2
17/09:30pm SW 7 9 - - - - 10 Mostly clear - 9.3 1023.0 0.2
17/09:00pm SW 9 12 - - - - 10 Mostly clear - 10.0 1022.9 0.2
17/08:30pm SW 11 15 - - - - 10 - - 10.6 1022.7 0.2
17/08:00pm SSW 13 17 - - - - 10 - - 11.0 1022.3 0.2
17/07:30pm SSW 13 16 - - - - 10 Partly cloudy - 11.2 1022.2 0.2
17/07:00pm SSW 12 16 - - - - 10 Mostly clear - 11.3 1021.9 0.2
17/06:30pm SW 10 14 - - - - 10 Mostly clear - 11.6 1021.6 0.2
17/06:00pm SSW 11 16 - - - - 10 Mostly clear - 11.7 1021.1 0.2
17/05:30pm SSW 12 16 - - - - 10 Mostly clear - 12.1 1020.8 0.2
17/05:00pm SSW 12 16 - - - - 10 Mostly clear - 13.1 1020.2 0.2
17/04:30pm SSW 15 20 - - - - 10 Mostly clear - 13.1 1019.8 0.2
17/04:00pm SSW 16 20 - - - - 10 Mostly clear - 14.0 1019.5 0.2
17/03:30pm SSW 14 18 - - - - 10 Mostly clear - 12.7 1019.4 0.2
17/03:02pm SSW 16 26 - - - - 10 Partly cloudy - 13.9 1019.0 0.0
17/03:00pm SSW 16 21 - - - - 10 Partly cloudy - 14.2 1018.9 0.0
17/02:30pm SW 14 17 - - - - 10 Mostly clear - 14.3 1019.0 0.0
17/02:00pm SW 15 21 - - - - 10 Mostly clear - 13.3 1019.2 0.0
17/01:30pm SSW 16 23 - - - - 10 Partly cloudy - 12.1 1019.5 0.0
17/01:10pm SSW 16 25 - - - - 10 Partly cloudy - 12.5 1019.5 0.0
17/01:00pm S 15 20 - - - - 10 Partly cloudy - 14.2 1019.5 0.0
17/12:43pm SW 16 26 - - - - 10 Partly cloudy - 13.4 1019.6 0.0
17/12:30pm SW 15 20 - - - - 10 Partly cloudy - 13.0 1020.0 0.0
17/12:00pm SSW 12 17 - - - - 10 Cloudy - 13.2 1020.4 0.0
17/11:30am SSW 11 13 - - - - 10 Partly cloudy - 12.0 1021.1 0.0
17/11:00am SSW 12 15 - - - - 10 Mostly clear - 12.4 1021.4 0.0
17/10:30am SSW 12 17 - - - - 10 Cloudy - 10.4 1021.8 0.0
17/10:00am SW 11 15 - - - - 10 Partly cloudy - 9.4 1021.8 0.0
17/09:30am SW 12 19 - - - - 10 Partly cloudy - 8.5 1021.6 0.0
17/09:00am WSW 9 13 - - - - 10 Mostly cloudy - 7.8 1021.3 0.4
17/08:30am SSW 8 10 - - - - 10 Mostly clear - 7.2 1020.8 0.4
17/08:00am SSW 7 9 - - - - 10 Partly cloudy - 6.9 1020.5 0.4
17/07:30am SSW 7 9 - - - - 10 Mostly clear - 6.5 1020.3 0.4
17/07:00am SW 8 11 - - - - 10 - - 6.7 1020.1 0.4
17/06:30am SW 11 13 - - - - 10 Mostly clear - 6.9 1020.2 0.4
17/06:13am WSW 11 13 - - - - 10 Mostly clear - 7.1 1020.2 0.4
17/06:00am WSW 10 13 - - - - 4 Cloudy Showers 7.5 1020.2 0.4
17/05:50am SW 13 17 - - - - 5 Mostly clear - 7.7 1020.3 0.4
17/05:30am SW 10 13 - - - - 10 Mostly clear - 6.8 1020.1 0.2
17/05:00am SW 11 13 - - - - 10 - - 7.3 1020.1 0.2
17/04:30am WSW 10 13 - - - - 10 Mostly clear - 7.3 1020.2 0.2
17/04:00am SW 11 13 - - - - 10 Mostly clear - 7.4 1020.3 0.2
17/03:30am WSW 9 11 - - - - 10 Mostly clear - 7.2 1020.2 0.2
17/03:00am SW 9 10 - - - - 10 Partly cloudy - 7.5 1020.1 0.2
17/02:59am SW 9 11 - - - - 10 Mostly clear - 7.5 1020.1 0.2
17/02:44am SW 12 15 - - - - 5 Partly cloudy - 8.0 1020.3 0.2
17/02:30am SW 10 13 - - - - 10 - - 7.6 1020.3 0.2
17/02:00am WSW 12 15 - - - - 10 - - 7.5 1020.2 0.2
17/01:30am SW 12 15 - - - - 10 - - 7.8 1020.6 0.2
17/01:00am WSW 12 16 - - - - 10 Mostly clear - 8.0 1020.5 0.2
17/12:30am SW 13 15 - - - - 10 Mostly clear - 8.4 1020.8 0.2
17/12:00am SW 13 17 - - - - 10 - - 8.6 1021.1 0.2
 
Date/Time
CST
Wind Sea
Height
m
Swell Vis
km
Cloud Weather Temp
°C
Press
MSL
hPa
Rain since
9am
mm
Dir  Spd
kts
Gust
kts
Height
m
Period
s
Dir
16/11:30pm WSW 13 16 - - - - 10 Mostly clear - 8.7 1021.1 0.2
16/11:00pm WSW 12 15 - - - - 10 Mostly clear - 9.3 1021.3 0.2
16/10:30pm SW 11 14 - - - - 10 - - 9.4 1021.2 0.2
16/10:00pm WSW 11 13 - - - - 10 Partly cloudy - 9.6 1021.3 0.2
16/09:30pm WSW 8 9 - - - - 10 - - 9.0 1021.5 0.2
16/09:00pm WSW 10 12 - - - - 10 - - 9.3 1021.2 0.2
16/08:30pm SW 9 10 - - - - 10 Mostly clear - 9.8 1021.0 0.2
16/08:00pm SW 10 13 - - - - 10 - - 10.1 1020.8 0.2
16/07:30pm SW 9 10 - - - - 10 - - 10.3 1020.4 0.2
16/07:00pm SW 8 12 - - - - 10 Mostly clear - 10.5 1020.4 0.2
16/06:30pm WSW 11 13 - - - - 10 Cloudy - 11.8 1020.1 0.2
16/06:00pm SW 11 15 - - - - 10 Cloudy - 12.6 1019.9 0.2
16/05:30pm SSW 12 15 - - - - 10 Cloudy - 12.9 1019.6 0.2
16/05:00pm SSW 16 21 - - - - 10 Cloudy - 13.3 1019.5 0.2
16/04:30pm S 15 19 - - - - 10 Mostly clear - 13.5 1019.3 0.2
16/04:00pm S 17 23 - - - - 10 - - 14.2 1019.0 0.2
16/03:40pm S 18 28 - - - - 10 Mostly clear - 14.5 1019.1 0.2
16/03:30pm S 21 28 - - - - 10 - - 14.5 1019.0 0.2
16/03:00pm SSW 21 26 - - - - 10 Partly cloudy - 14.8 1019.0 0.2
16/02:30pm S 17 23 - - - - 10 Partly cloudy - 15.0 1019.0 0.2
16/02:00pm SSW 15 21 - - - - 10 Partly cloudy - 15.7 1019.1 0.2
16/01:30pm SSW 18 21 - - - - 10 Partly cloudy - 14.1 1019.4 0.2
16/01:00pm S 19 29 - - - - 10 Partly cloudy - 14.5 1019.7 0.2
16/12:57pm S 17 28 - - - - 10 Partly cloudy - 14.1 1019.7 0.2
16/12:30pm SSW 12 17 - - - - 10 Partly cloudy - 13.3 1020.1 0.2
16/12:00pm SW 15 22 - - - - 9 Mostly cloudy Drizzle 11.3 1020.8 0.2
16/11:30am SSW 13 19 - - - - 10 Mostly clear - 12.3 1021.0 0.2
16/11:00am SSW 14 18 - - - - 10 Mostly clear - 12.0 1021.2 0.2
16/10:40am SW 12 17 - - - - 10 Mostly clear - 11.2 1021.2 0.2
16/10:30am SW 11 14 - - - - 5 Mostly clear - 10.8 1021.1 0.2
16/10:24am SW 12 16 - - - - 5 Mostly clear - 10.4 1021.2 0.2
16/10:00am SW 12 16 - - - - 10 Partly cloudy - 11.0 1021.1 0.0
16/09:30am SW 12 16 - - - - 10 Mostly clear - 10.2 1020.8 0.0
16/09:00am SW 9 12 - - - - 10 Cloudy Showers 9.1 1020.6 1.6
16/08:30am SW 9 11 - - - - 10 Cloudy - 8.8 1020.1 1.6
16/08:00am SW 11 15 - - - - 10 Cloudy - 8.6 1019.9 1.6
16/07:30am SW 9 12 - - - - 10 Cloudy - 8.4 1019.5 1.6
16/07:00am SW 11 14 - - - - 10 Cloudy - 8.4 1019.4 1.6
16/06:30am SW 7 9 - - - - 10 Cloudy - 8.1 1019.2 1.6
16/06:00am SW 9 10 - - - - 10 Mostly cloudy Recent precip. 7.7 1018.8 1.6
16/05:30am SW 9 12 - - - - 10 Partly cloudy - 7.9 1018.9 1.6
16/05:00am SW 10 11 - - - - 10 Partly cloudy - 7.8 1018.7 1.4
16/04:30am SW 7 9 - - - - 10 Partly cloudy - 8.0 1018.6 1.4
16/04:00am WSW 9 11 - - - - 10 Partly cloudy - 7.9 1018.5 1.4
16/03:30am SW 10 13 - - - - 10 Cloudy - 8.3 1018.4 1.4
16/03:00am SW 9 12 - - - - 10 Partly cloudy - 7.9 1018.3 1.4
16/02:30am SW 9 13 - - - - 10 Partly cloudy - 8.0 1018.5 1.4
16/02:00am WSW 9 11 - - - - 10 Partly cloudy - 8.1 1018.5 1.4
16/01:30am WSW 6 7 - - - - 10 Cloudy - 8.2 1018.5 1.4
16/01:00am WSW 8 10 - - - - 10 Mostly clear - 8.0 1018.5 1.4
16/12:51am WSW 8 11 - - - - 10 Mostly clear - 8.2 1018.5 1.4
16/12:30am SW 8 10 - - - - 10 Partly cloudy - 8.8 1018.5 1.4
16/12:17am SW 9 13 - - - - 10 Partly cloudy - 8.9 1018.7 1.4
16/12:00am SW 9 11 - - - - 10 - - 8.7 1018.8 1.4
 
Date/Time
CST
Wind Sea
Height
m
Swell Vis
km
Cloud Weather Temp
°C
Press
MSL
hPa
Rain since
9am
mm
Dir  Spd
kts
Gust
kts
Height
m
Period
s
Dir
15/11:30pm SSW 12 16 - - - - 10 Mostly clear - 9.1 1018.9 1.4

Other formats

Comma delimited format used in spreadsheet applications
http://www.bom.gov.au/fwo/IDS60701/IDS60701.95666.axf

JavaScript Object Notation format (JSON) in row-major order
http://www.bom.gov.au/fwo/IDS60701/IDS60701.95666.json

Data quality

Most of these data are generated automatically and are frequently updated. Quality checks on data are not normally performed. It is possible for incorrect values to appear. Refer to information at About Latest Weather Observations and please check the disclaimer before using these data.